Pleven, Bulgaria
Current Conditions -  °F | °C
As of 12:00 PM on Friday 31 Oct 2014 (Local Time) from LBGO Reporting Station
Overcast Overcast  
Wind Chill: 46°   Ceiling: 2400
Heat Index: 46°   Visibility: 5mi
Dew Point: 46°   Wind: 2mph
Humidity: 100%   Direction: NA
Pressure: 30.27"   Gusts: NA
Location:  43.42°N, 24.62°E
Report Text: LBGO 310900Z VRB01MPS 8000 OVC024 08/08 Q1025 NOSIG R99/29//94
Loading
Personal Weather Stations






























Interactive Weather Map
Tropical Storm Tracking
New forecast layout! Learn more

10-Day Weather Forecast

Advertisements
Track Severe Weather on mobile